createdAt,value
2018-04-28T00:01:38.118Z,1.90
2018-04-28T00:04:06.945Z,1.50
2018-04-28T00:06:36.843Z,1.50
2018-04-28T00:09:05.662Z,1.60
2018-04-28T00:11:34.542Z,1.70
2018-04-28T00:14:03.334Z,1.67
2018-04-28T00:16:33.015Z,1.20
2018-04-28T00:19:02.625Z,1.57
2018-04-28T00:21:34.318Z,1.50
2018-04-28T00:24:03.195Z,1.70
2018-04-28T00:26:31.983Z,1.57
2018-04-28T00:29:01.606Z,1.60
2018-04-28T00:31:33.250Z,1.70
2018-04-28T00:34:02.904Z,1.77
2018-04-28T00:36:41.596Z,1.80
2018-04-28T00:39:10.466Z,1.47
2018-04-28T00:41:39.253Z,1.50
2018-04-28T00:44:12.149Z,1.50
2018-04-28T00:46:44.726Z,1.60
2018-04-28T00:49:14.378Z,1.50
2018-04-28T00:51:43.173Z,1.43
2018-04-28T00:54:12.814Z,1.67
2018-04-28T00:56:47.422Z,1.40
2018-04-28T00:59:20.025Z,1.50
2018-04-28T01:01:49.323Z,1.50
2018-04-28T01:04:18.110Z,1.40
2018-04-28T01:06:48.840Z,1.30
2018-04-28T01:09:17.833Z,1.43
2018-04-28T01:11:46.633Z,1.43
2018-04-28T01:14:31.405Z,1.30
2018-04-28T01:17:00.289Z,1.50
2018-04-28T01:19:33.370Z,1.43
2018-04-28T01:22:03.044Z,1.50
2018-04-28T01:24:38.019Z,1.37
2018-04-28T01:27:10.667Z,1.60
2018-04-28T01:29:45.483Z,1.50
2018-04-28T01:32:14.282Z,1.37
2018-04-28T01:34:43.094Z,1.53
2018-04-28T01:37:29.679Z,1.30
2018-04-28T01:40:04.386Z,1.80
2018-04-28T01:42:33.976Z,1.57
2018-04-28T01:45:02.786Z,1.60
2018-04-28T01:47:32.505Z,1.60
2018-04-28T01:50:02.089Z,1.40
2018-04-28T01:52:31.723Z,1.60
2018-04-28T01:55:00.518Z,2.07
2018-04-28T01:57:34.232Z,1.60
2018-04-28T02:00:17.902Z,1.63
2018-04-28T02:02:46.737Z,1.67
2018-04-28T02:05:21.375Z,1.73
2018-04-28T02:07:51.331Z,1.70
2018-04-28T02:10:20.147Z,1.70
2018-04-28T02:12:50.908Z,1.63
2018-04-28T02:15:34.603Z,1.80
2018-04-28T02:18:20.283Z,1.97
2018-04-28T02:20:52.847Z,1.40
2018-04-28T02:23:22.373Z,1.70
2018-04-28T02:25:54.850Z,1.77
2018-04-28T02:28:23.718Z,1.60
2018-04-28T02:30:58.356Z,1.90
2018-04-28T02:33:27.200Z,1.80
2018-04-28T02:35:55.978Z,1.80
2018-04-28T02:38:40.389Z,2.00
2018-04-28T02:41:14.030Z,2.03
2018-04-28T02:43:43.724Z,1.97
2018-04-28T02:46:14.451Z,2.27
2018-04-28T02:48:46.045Z,1.73
2018-04-28T02:51:15.634Z,1.90
2018-04-28T02:53:49.189Z,1.93
2018-04-28T02:56:25.961Z,1.90
2018-04-28T02:58:58.713Z,2.00
2018-04-28T03:01:27.507Z,2.13
2018-04-28T03:03:57.256Z,2.40
2018-04-28T03:06:28.998Z,2.03
2018-04-28T03:08:59.239Z,2.30
2018-04-28T03:11:30.645Z,2.00
2018-04-28T03:13:59.478Z,2.17
2018-04-28T03:16:30.985Z,2.07
2018-04-28T03:19:00.755Z,2.30
2018-04-28T03:21:29.571Z,2.33
2018-04-28T03:24:01.794Z,2.07
2018-04-28T03:26:45.505Z,1.80
2018-04-28T03:29:14.298Z,1.90
2018-04-28T03:31:43.830Z,1.87
2018-04-28T03:34:15.587Z,2.23
2018-04-28T03:36:50.225Z,2.03
2018-04-28T03:39:19.218Z,1.97
2018-04-28T03:41:48.614Z,2.00
2018-04-28T03:44:32.330Z,1.77
2018-04-28T03:47:17.864Z,2.00
2018-04-28T03:49:46.723Z,2.07
2018-04-28T03:52:21.459Z,1.83
2018-04-28T03:54:51.055Z,1.87
2018-04-28T03:57:34.739Z,2.20
2018-04-28T04:00:09.425Z,2.03
2018-04-28T04:02:44.003Z,2.40
2018-04-28T04:05:14.784Z,2.20
2018-04-28T04:07:45.002Z,2.50
2018-04-28T04:10:13.794Z,2.30
2018-04-28T04:12:45.561Z,2.40
2018-04-28T04:15:30.114Z,2.80
2018-04-28T04:18:05.040Z,2.33
2018-04-28T04:20:34.649Z,2.60
2018-04-28T04:23:04.054Z,2.50
2018-04-28T04:25:34.793Z,2.63
2018-04-28T04:28:04.562Z,2.53
2018-04-28T04:30:35.209Z,2.30
2018-04-28T04:33:04.777Z,2.70
2018-04-28T04:35:34.542Z,2.60
2018-04-28T04:38:06.514Z,2.53
2018-04-28T04:40:38.094Z,2.47
2018-04-28T04:43:09.658Z,2.40
2018-04-28T04:45:39.225Z,2.53
2018-04-28T04:48:13.830Z,2.97
2018-04-28T04:50:58.279Z,2.27
2018-04-28T04:53:33.859Z,3.20
2018-04-28T04:56:08.589Z,3.03
2018-04-28T04:58:37.436Z,3.07
2018-04-28T05:01:12.030Z,2.30
2018-04-28T05:03:55.774Z,2.50
2018-04-28T05:06:24.589Z,2.70
2018-04-28T05:08:56.749Z,2.60
2018-04-28T05:11:25.541Z,2.57
2018-04-28T05:13:58.982Z,2.40
2018-04-28T05:16:27.882Z,2.60
2018-04-28T05:18:59.733Z,2.53
2018-04-28T05:21:38.453Z,3.17
2018-04-28T05:24:14.106Z,2.67
2018-04-28T23:24:58.677Z,2.60
2018-04-28T23:27:27.473Z,2.50
2018-04-28T23:29:56.351Z,2.67
2018-04-28T23:32:25.322Z,2.97
2018-04-28T23:34:54.114Z,2.57
2018-04-28T23:37:22.933Z,2.50
2018-04-28T23:39:51.810Z,2.67
2018-04-28T23:42:20.607Z,2.67
2018-04-28T23:44:50.534Z,2.30
2018-04-28T23:47:19.419Z,2.53
2018-04-28T23:49:48.221Z,2.77
2018-04-28T23:52:17.047Z,2.80
2018-04-28T23:54:45.842Z,2.53
2018-04-28T23:57:14.870Z,3.17
2018-04-28T23:59:43.658Z,2.70
